»·PEaware :: HYDRA63 KMAF-KLBB

HYDRA63 :: KMAF-KLBB

FLIGHT INFORMATION

Flight Status: Arrived
Operator: Unknown
More flights by this operator :: More flights under this callsign
Pilot: 47th FTW Laughlin (28783)
Aircraft: BEECH AIRCRAFT T-6A TEXAN
(TEX2)
More flights by this aircraft type
Origin: KMAF Midland Intl
United States
Destination: KLBB Lubbock Intl
United States
More flights between these airports :: More routes between these airports
Route: KMAF KLBB
File this flight plan on PilotEdge
Remarks: MULTIPLE APPROACHES AT KLBB
Altitude:
(Current/Filed)
17,000ft
Speed:
(Current/Filed)
255kts
Departed: 30-Jul-20 07:26 AM
Arrived: 30-Jul-20 08:10 AM
Distance/Time
Traveled:
105nm/0:44
Distance/Time
To Go:
Arrived

Flight Plot

Page will automatically refresh every two minutes.

Flight plan parsing failed; only flown route is shown


Map Options




Map Legend


Flown Route
Filed Route
Departure Airport
Arrival Airport
Navaid (VOR, NDB)
Fix

Horizontal Profiles

Position Reports

Time Latitude Longitude Heading Altitude Ground
Speed
30-Jul-20 07:03 31.939239 -102.206796 175 2875ft 0kts
30-Jul-20 07:04 31.939239 -102.206796 175 2875ft 0kts
30-Jul-20 07:05 31.939239 -102.206796 175 2875ft 0kts
30-Jul-20 07:06 31.939239 -102.206796 175 2875ft 0kts
30-Jul-20 07:07 31.939239 -102.206796 175 2875ft 0kts
30-Jul-20 07:08 31.939239 -102.206796 175 2875ft 0kts
30-Jul-20 07:09 31.939239 -102.206796 175 2875ft 0kts
30-Jul-20 07:10 31.939239 -102.206796 175 2875ft 0kts
30-Jul-20 07:11 31.939239 -102.206796 175 2875ft 0kts
30-Jul-20 07:12 31.939239 -102.206796 175 2875ft 0kts
30-Jul-20 07:13 31.939239 -102.206796 175 2875ft 0kts
30-Jul-20 07:14 31.939239 -102.206796 175 2875ft 0kts
30-Jul-20 07:15 31.939239 -102.206796 175 2875ft 0kts
30-Jul-20 07:16 31.939239 -102.206796 175 2875ft 0kts
30-Jul-20 07:17 31.939231 -102.206794 168 2875ft 0kts
30-Jul-20 07:18 31.941065 -102.205682 357 2875ft 12kts
30-Jul-20 07:19 31.944659 -102.206124 352 2875ft 18kts
30-Jul-20 07:20 31.951247 -102.206788 355 2875ft 24kts
30-Jul-20 07:21 31.956461 -102.207152 355 2875ft 14kts
30-Jul-20 07:22 31.959209 -102.206635 85 2875ft 0kts
30-Jul-20 07:23 31.959219 -102.206407 88 2875ft 7kts
30-Jul-20 07:24 31.957469 -102.205335 177 2875ft 0kts
30-Jul-20 07:25 31.950953 -102.204688 172 3015ft 117kts
30-Jul-20 07:26 31.908290 -102.195134 126 5174ft 183kts
30-Jul-20 07:27 31.941256 -102.180258 331 6635ft 228kts
30-Jul-20 07:28 31.992934 -102.193798 29 9346ft 218kts
30-Jul-20 07:29 32.048324 -102.187319 358 12080ft 217kts
30-Jul-20 07:30 32.108977 -102.186719 4 14666ft 233kts
30-Jul-20 07:31 32.171962 -102.173304 8 17018ft 248kts
30-Jul-20 07:32 32.247924 -102.166005 4 17179ft 295kts
30-Jul-20 07:33 32.331989 -102.157515 6 16780ft 308kts
30-Jul-20 07:34 32.415105 -102.142580 11 16896ft 303kts
30-Jul-20 07:35 32.498994 -102.131087 6 16828ft 304kts
30-Jul-20 07:36 32.580499 -102.106914 6 16773ft 304kts
30-Jul-20 07:37 32.663339 -102.094093 8 17085ft 298kts
30-Jul-20 07:38 32.747462 -102.085291 5 16811ft 308kts
30-Jul-20 07:39 32.828198 -102.074377 7 16978ft 299kts
30-Jul-20 07:40 32.910642 -102.058559 14 17036ft 302kts
30-Jul-20 07:41 32.991822 -102.034981 10 16939ft 295kts
30-Jul-20 07:42 33.071705 -102.026030 7 15302ft 285kts
30-Jul-20 07:43 33.150454 -102.012985 10 12838ft 287kts
30-Jul-20 07:44 33.227722 -101.996341 10 10609ft 283kts
30-Jul-20 07:45 33.304784 -101.981613 6 8298ft 279kts
30-Jul-20 07:46 33.381390 -101.976833 7 7894ft 279kts
30-Jul-20 07:47 33.456946 -101.964362 11 7963ft 250kts
30-Jul-20 07:48 33.518915 -101.949613 14 7828ft 220kts
30-Jul-20 07:49 33.579090 -101.935870 11 8070ft 223kts
30-Jul-20 07:50 33.643492 -101.928723 16 8141ft 247kts
30-Jul-20 07:51 33.708523 -101.908090 29 8496ft 240kts
30-Jul-20 07:52 33.778783 -101.893264 17 7813ft 255kts
30-Jul-20 07:53 33.852205 -101.873257 12 7868ft 284kts
30-Jul-20 07:54 33.928268 -101.849048 22 7797ft 285kts
30-Jul-20 07:55 33.975704 -101.799895 101 8332ft 257kts
30-Jul-20 07:56 33.943279 -101.729616 126 7841ft 230kts
30-Jul-20 07:57 33.900624 -101.674886 142 7752ft 200kts
30-Jul-20 07:58 33.866497 -101.627880 138 7930ft 194kts
30-Jul-20 07:59 33.818127 -101.603464 159 7084ft 189kts
30-Jul-20 08:00 33.778703 -101.585898 168 5376ft 163kts
30-Jul-20 08:01 33.729467 -101.571962 171 4951ft 200kts
30-Jul-20 08:02 33.667727 -101.581729 196 5098ft 220kts
30-Jul-20 08:03 33.608558 -101.592437 231 5145ft 220kts
30-Jul-20 08:04 33.615731 -101.662059 277 4977ft 140kts
30-Jul-20 08:05 33.626261 -101.703427 290 4982ft 115kts
30-Jul-20 08:06 33.640579 -101.739530 298 4429ft 124kts
30-Jul-20 08:07 33.656784 -101.775817 293 3543ft 122kts
30-Jul-20 08:08 33.662221 -101.807937 269 3251ft 54kts
30-Jul-20 08:09 33.662117 -101.822194 260 3256ft 35kts
30-Jul-20 08:10 33.660279 -101.828349 274 3250ft 48kts
30-Jul-20 08:11 33.659241 -101.832825 184 3244ft 0kts
30-Jul-20 08:12 33.659241 -101.832825 184 3244ft 0kts
30-Jul-20 08:13 33.659241 -101.832825 184 3244ft 0kts
30-Jul-20 08:14 33.659241 -101.832825 184 3244ft 0kts
30-Jul-20 08:15 33.659241 -101.832825 184 3244ft 0kts
30-Jul-20 08:16 33.659241 -101.832825 184 3244ft 0kts
30-Jul-20 08:17 33.659241 -101.832825 184 3244ft 0kts
30-Jul-20 08:18 33.659241 -101.832825 184 3244ft 0kts
30-Jul-20 08:19 33.659241 -101.832825 184 3244ft 0kts
30-Jul-20 08:20 33.659241 -101.832825 184 3244ft 0kts
30-Jul-20 08:21 33.659241 -101.832825 184 3244ft 0kts
30-Jul-20 08:22 33.659241 -101.832825 184 3244ft 0kts
30-Jul-20 08:23 33.659241 -101.832825 184 3244ft 0kts

Navigation Log

Ident Type
Flight plan parsing failed, navigation log unavailable